CPX305 Details

Departure: Seattle-Tacoma International Airport (KSEA)
Arrival: Chicago/Rockford International Airport (KRFD)
Route: NORMY J12 EPH HLN DPR J16 FSD DBQ


Current Weather Information
KSEA 251042Z 22006KT 10SM SCT016 OVC036 12/07 A2999 RMK AO2 T01170072
KRFD 250954Z 20005KT 10SM BKN200 21/16 A2986 RMK AO2 SLP107 T02060161